createdAt,value
2019-03-22T00:00:38.387Z,24.43
2019-03-22T00:03:27.714Z,17.43
2019-03-22T00:06:01.891Z,18.40
2019-03-22T00:08:52.102Z,20.80
2019-03-22T00:11:36.717Z,16.53
2019-03-22T00:14:09.247Z,20.80
2019-03-22T00:16:45.863Z,15.07
2019-03-22T00:19:35.465Z,15.97
2019-03-22T00:22:09.782Z,22.17
2019-03-22T00:24:45.748Z,15.93
2019-03-22T00:27:41.737Z,17.30
2019-03-22T00:30:32.238Z,20.60
2019-03-22T00:33:22.757Z,22.60
2019-03-22T00:36:02.514Z,23.80
2019-03-22T00:38:44.711Z,13.77
2019-03-22T00:41:19.382Z,19.27
2019-03-22T00:44:10.080Z,22.90
2019-03-22T00:46:46.619Z,21.47
2019-03-22T00:49:21.241Z,23.20
2019-03-22T00:51:56.794Z,29.30
2019-03-22T00:54:32.996Z,20.40
2019-03-22T00:57:05.534Z,22.70
2019-03-22T00:59:36.821Z,28.07
2019-03-22T01:02:12.341Z,23.57
2019-03-22T01:04:47.536Z,22.50
2019-03-22T01:07:23.439Z,19.03
2019-03-22T01:10:14.978Z,19.70
2019-03-22T01:12:48.794Z,19.77
2019-03-22T01:15:22.613Z,21.83
2019-03-22T01:18:02.183Z,20.00
2019-03-22T01:20:47.053Z,25.17
2019-03-22T01:23:21.621Z,21.93
2019-03-22T01:25:55.150Z,16.97
2019-03-22T01:28:28.457Z,24.20
2019-03-22T01:31:00.488Z,15.70
2019-03-22T01:33:39.690Z,13.83
2019-03-22T01:36:24.602Z,14.00
2019-03-22T01:39:10.706Z,19.67
2019-03-22T01:42:01.200Z,21.10
2019-03-22T01:44:36.675Z,16.90
2019-03-22T01:47:10.451Z,18.90
2019-03-22T01:49:46.399Z,19.27
2019-03-22T01:52:19.860Z,20.93
2019-03-22T01:55:04.910Z,20.17
2019-03-22T01:57:52.937Z,17.37
2019-03-22T02:00:27.371Z,18.07
2019-03-22T02:03:07.013Z,14.53
2019-03-22T02:05:44.103Z,18.00
2019-03-22T02:08:35.877Z,18.20
2019-03-22T02:11:14.541Z,22.47
2019-03-22T02:13:47.826Z,20.80
2019-03-22T02:16:19.655Z,18.77
2019-03-22T02:18:52.956Z,18.37
2019-03-22T02:21:42.998Z,17.63
2019-03-22T02:24:14.872Z,22.20
2019-03-22T02:26:52.487Z,18.77
2019-03-22T02:29:29.205Z,20.80
2019-03-22T02:32:06.293Z,17.90
2019-03-22T02:34:52.932Z,31.17
2019-03-22T02:37:33.426Z,22.53
2019-03-22T02:40:08.500Z,14.80
2019-03-22T02:42:54.261Z,15.43
2019-03-22T02:45:28.960Z,12.47
2019-03-22T02:48:00.091Z,17.90
2019-03-22T02:50:39.562Z,19.40
2019-03-22T02:53:19.678Z,18.00
2019-03-22T02:55:51.257Z,18.97
2019-03-22T02:58:40.865Z,16.03
2019-03-22T03:01:12.840Z,16.13
2019-03-22T03:03:46.978Z,13.07
2019-03-22T03:06:18.314Z,12.13
2019-03-22T03:08:52.255Z,15.43
2019-03-22T03:11:37.756Z,14.37
2019-03-22T03:14:09.062Z,13.43
2019-03-22T03:16:43.396Z,12.23
2019-03-22T03:19:20.142Z,17.83
2019-03-22T03:21:54.218Z,13.50
2019-03-22T03:24:27.292Z,11.60
2019-03-22T03:27:05.827Z,14.63
2019-03-22T03:29:42.704Z,11.27
2019-03-22T03:32:21.899Z,12.40
2019-03-22T03:35:03.863Z,12.30
2019-03-22T03:37:43.505Z,14.43
2019-03-22T03:40:23.232Z,16.07
2019-03-22T03:42:54.833Z,13.47
2019-03-22T03:45:45.118Z,11.10
2019-03-22T03:48:24.451Z,10.67
2019-03-22T03:51:03.489Z,12.30
2019-03-22T03:53:37.906Z,10.87
2019-03-22T03:56:10.236Z,13.17
2019-03-22T03:58:52.403Z,13.30
2019-03-22T04:01:19.609Z,12.33
2019-03-22T04:03:55.380Z,19.63
2019-03-22T04:06:30.383Z,9.80
2019-03-22T04:09:07.238Z,15.90
2019-03-22T04:11:43.541Z,8.93
2019-03-22T04:14:37.993Z,12.20
2019-03-22T04:17:13.190Z,14.83
2019-03-22T04:19:55.271Z,11.03
2019-03-22T04:22:30.502Z,15.57
2019-03-22T04:25:27.548Z,17.87
2019-03-22T04:28:22.159Z,10.70
2019-03-22T04:31:15.667Z,13.07
2019-03-22T04:33:50.887Z,13.13
2019-03-22T04:36:37.036Z,12.63
2019-03-22T04:39:12.496Z,11.07
2019-03-22T04:41:46.216Z,16.50
2019-03-22T04:44:21.182Z,15.13
2019-03-22T04:46:55.695Z,11.87
2019-03-22T04:49:34.210Z,12.00
2019-03-22T04:52:12.381Z,16.93
2019-03-22T04:54:47.104Z,14.37
2019-03-22T04:57:24.492Z,20.30
2019-03-22T05:00:14.932Z,13.13
2019-03-22T05:02:47.930Z,16.43
2019-03-22T05:05:25.450Z,14.73
2019-03-22T05:08:04.805Z,13.33
2019-03-22T05:10:39.663Z,13.40
2019-03-22T05:13:29.910Z,11.30
2019-03-22T05:16:25.903Z,15.13
2019-03-22T05:19:09.177Z,14.97
2019-03-22T05:21:44.535Z,13.43
2019-03-22T05:24:32.155Z,17.37
2019-03-22T05:27:06.788Z,12.97
2019-03-22T05:29:42.843Z,12.33
2019-03-22T05:32:20.339Z,11.87
2019-03-22T05:34:58.402Z,17.97
2019-03-22T05:37:39.160Z,13.40
2019-03-22T05:40:13.331Z,12.53
2019-03-22T05:42:49.375Z,22.70
2019-03-22T05:45:26.105Z,19.43
2019-03-22T05:48:08.261Z,14.50
2019-03-22T05:50:43.935Z,15.20
2019-03-22T05:53:22.037Z,16.03
2019-03-22T05:55:55.952Z,17.63
2019-03-22T05:58:33.857Z,20.67
2019-03-22T06:01:07.980Z,14.60
2019-03-22T06:03:42.934Z,19.77
2019-03-22T06:06:26.966Z,19.50
2019-03-22T06:08:59.851Z,16.97
2019-03-22T06:11:37.688Z,19.97
2019-03-22T06:14:09.837Z,19.90
2019-03-22T06:16:43.779Z,17.20
2019-03-22T06:19:16.249Z,24.33
2019-03-22T06:21:48.232Z,20.27
2019-03-22T06:24:22.350Z,16.03
2019-03-22T06:26:55.296Z,16.17
2019-03-22T06:29:36.840Z,17.90
2019-03-22T06:32:09.561Z,28.10
2019-03-22T06:34:43.303Z,28.63
2019-03-22T06:37:20.419Z,31.50
2019-03-22T06:40:10.510Z,20.20
2019-03-22T06:43:00.421Z,19.87
2019-03-22T06:45:52.001Z,22.17
2019-03-22T06:48:25.669Z,23.63
2019-03-22T06:51:19.790Z,20.90
2019-03-22T06:54:07.751Z,19.10
2019-03-22T06:56:50.090Z,18.87
2019-03-22T06:59:23.584Z,21.13
2019-03-22T07:01:58.940Z,18.00
2019-03-22T07:04:48.788Z,17.03
2019-03-22T07:07:46.273Z,24.90
2019-03-22T07:10:37.912Z,24.43
2019-03-22T07:13:09.277Z,23.43
2019-03-22T07:15:46.023Z,27.37
2019-03-22T07:18:32.622Z,19.60
2019-03-22T07:21:04.102Z,26.03
2019-03-22T07:23:37.553Z,21.50
2019-03-22T07:26:09.738Z,20.87
2019-03-22T07:28:43.247Z,26.03
2019-03-22T07:31:21.244Z,25.60
2019-03-22T07:33:59.918Z,20.10
2019-03-22T07:36:32.744Z,24.77
2019-03-22T07:39:11.151Z,27.80
2019-03-22T07:41:43.880Z,31.50
2019-03-22T07:44:34.175Z,25.70
2019-03-22T07:47:24.505Z,25.17
2019-03-22T07:50:13.641Z,23.23
2019-03-22T07:52:50.851Z,25.57
2019-03-22T07:55:41.445Z,22.63
2019-03-22T07:58:15.261Z,20.10
2019-03-22T08:00:48.998Z,22.53
2019-03-22T08:03:39.519Z,21.43
2019-03-22T08:06:32.260Z,22.23
2019-03-22T08:09:13.898Z,26.33
2019-03-22T08:11:47.362Z,25.23
2019-03-22T08:14:26.362Z,29.67
2019-03-22T08:17:00.620Z,30.93
2019-03-22T08:19:43.285Z,35.33
2019-03-22T08:22:28.662Z,25.80
2019-03-22T08:25:13.874Z,29.03
2019-03-22T08:28:05.736Z,27.07
2019-03-22T08:30:43.156Z,28.33
2019-03-22T08:33:20.446Z,27.80
2019-03-22T08:35:59.669Z,29.87
2019-03-22T08:38:35.502Z,30.00
2019-03-22T08:41:45.686Z,35.57
2019-03-22T08:44:18.871Z,25.30
2019-03-22T08:46:53.906Z,22.90
2019-03-22T08:49:34.698Z,28.90
2019-03-22T08:52:11.127Z,25.30
2019-03-22T08:54:48.807Z,27.33
2019-03-22T08:57:25.337Z,42.33
2019-03-22T09:00:02.885Z,37.53
2019-03-22T09:02:51.757Z,36.83
2019-03-22T09:05:42.587Z,26.80
2019-03-22T09:08:32.393Z,28.27
2019-03-22T09:11:05.583Z,30.17
2019-03-22T09:13:37.998Z,28.30
2019-03-22T09:16:21.179Z,31.33
2019-03-22T09:18:56.209Z,29.23
2019-03-22T09:21:30.604Z,30.37
2019-03-22T09:24:06.472Z,30.23
2019-03-22T09:26:47.824Z,31.20
2019-03-22T09:29:18.878Z,30.60
2019-03-22T09:31:53.802Z,28.50
2019-03-22T09:34:33.956Z,26.50
2019-03-22T09:37:09.386Z,27.70
2019-03-22T09:39:43.074Z,32.17
2019-03-22T09:42:32.973Z,25.57
2019-03-22T09:45:04.763Z,35.60
2019-03-22T09:47:39.266Z,29.20
2019-03-22T09:50:29.904Z,25.00
2019-03-22T09:53:01.428Z,25.83
2019-03-22T09:55:38.479Z,26.90
2019-03-22T09:58:19.944Z,27.67
2019-03-22T10:00:53.944Z,29.40
2019-03-22T10:03:27.104Z,33.73
2019-03-22T10:06:03.478Z,27.53
2019-03-22T10:08:35.224Z,27.60
2019-03-22T10:11:10.839Z,33.00
2019-03-22T10:14:00.398Z,27.90
2019-03-22T10:16:53.940Z,32.27
2019-03-22T10:19:27.968Z,37.40
2019-03-22T10:22:00.540Z,30.23
2019-03-22T10:24:35.719Z,29.67
2019-03-22T10:27:07.115Z,33.27
2019-03-22T10:29:41.962Z,34.83
2019-03-22T10:32:13.091Z,37.00
2019-03-22T10:34:46.132Z,37.33
2019-03-22T10:37:23.919Z,34.47
2019-03-22T10:40:02.529Z,33.70
2019-03-22T10:42:40.180Z,34.27
2019-03-22T10:45:14.247Z,25.23
2019-03-22T10:47:51.281Z,30.43
2019-03-22T10:50:42.936Z,31.40
2019-03-22T10:53:19.162Z,32.43
2019-03-22T10:55:55.862Z,26.10
2019-03-22T10:58:46.705Z,29.77
2019-03-22T11:01:48.615Z,39.60
2019-03-22T11:04:23.858Z,26.60
2019-03-22T11:07:08.776Z,35.07
2019-03-22T11:10:11.809Z,32.23
2019-03-22T11:12:52.923Z,35.37
2019-03-22T11:15:28.871Z,34.90
2019-03-22T11:18:19.320Z,31.70
2019-03-22T11:21:05.342Z,34.63
2019-03-22T11:23:40.802Z,50.73
2019-03-22T11:26:20.856Z,38.23
2019-03-22T11:28:58.479Z,35.83
2019-03-22T11:31:40.062Z,29.40
2019-03-22T11:34:12.492Z,32.07
2019-03-22T11:36:56.907Z,35.80
2019-03-22T11:39:36.301Z,34.47
2019-03-22T11:42:07.528Z,41.80
2019-03-22T11:44:43.598Z,32.10
2019-03-22T11:47:28.050Z,34.43
2019-03-22T11:50:01.968Z,29.13
2019-03-22T11:52:39.099Z,29.77
2019-03-22T11:55:14.769Z,30.00
2019-03-22T11:58:07.355Z,27.53
2019-03-22T12:01:01.430Z,24.43
2019-03-22T12:03:37.748Z,30.80
2019-03-22T12:06:31.906Z,25.53
2019-03-22T12:09:14.231Z,24.50
2019-03-22T12:11:50.286Z,25.57
2019-03-22T12:14:41.458Z,23.17
2019-03-22T12:17:29.798Z,21.83
2019-03-22T12:20:06.984Z,26.53
2019-03-22T12:22:49.309Z,22.33
2019-03-22T12:25:23.297Z,21.77
2019-03-22T12:28:03.335Z,25.77
2019-03-22T12:30:40.743Z,23.40
2019-03-22T12:33:29.693Z,25.70
2019-03-22T12:36:04.787Z,23.50
2019-03-22T12:38:46.474Z,27.00
2019-03-22T12:41:21.470Z,20.07
2019-03-22T12:44:12.929Z,19.97
2019-03-22T12:46:44.537Z,24.37
2019-03-22T12:49:15.964Z,18.17
2019-03-22T12:51:49.783Z,19.30
2019-03-22T12:54:23.543Z,24.77
2019-03-22T12:56:58.341Z,23.47
2019-03-22T12:59:31.580Z,21.03
2019-03-22T13:02:03.670Z,22.50
2019-03-22T13:04:41.158Z,20.97
2019-03-22T13:07:14.530Z,18.80
2019-03-22T13:09:52.806Z,20.93
2019-03-22T13:12:32.766Z,20.17
2019-03-22T13:15:05.908Z,20.63
2019-03-22T13:17:41.595Z,21.90
2019-03-22T13:20:14.894Z,21.27
2019-03-22T13:22:47.550Z,23.47
2019-03-22T13:25:22.043Z,24.53
2019-03-22T13:27:57.635Z,27.80
2019-03-22T13:30:42.124Z,26.23
2019-03-22T13:33:31.877Z,21.33
2019-03-22T13:36:21.707Z,19.03
2019-03-22T13:39:07.642Z,21.40
2019-03-22T13:41:41.923Z,20.07
2019-03-22T13:44:14.782Z,22.00
2019-03-22T13:46:49.971Z,20.70
2019-03-22T13:49:43.250Z,18.90
2019-03-22T13:52:19.980Z,23.07
2019-03-22T13:54:55.071Z,23.03
2019-03-22T13:57:32.934Z,24.30
2019-03-22T14:00:11.848Z,23.80
2019-03-22T14:02:43.508Z,18.67
2019-03-22T14:05:22.694Z,20.17
2019-03-22T14:08:13.812Z,25.00
2019-03-22T14:10:47.466Z,20.13
2019-03-22T14:13:40.191Z,16.37
2019-03-22T14:16:13.574Z,28.10
2019-03-22T14:19:05.190Z,24.20
2019-03-22T14:21:52.567Z,27.30
2019-03-22T14:24:37.350Z,25.20
2019-03-22T14:27:30.820Z,16.90
2019-03-22T14:30:06.087Z,23.73
2019-03-22T14:32:44.387Z,20.47
2019-03-22T14:35:28.501Z,21.80
2019-03-22T14:38:02.122Z,21.10
2019-03-22T14:40:53.067Z,23.20
2019-03-22T14:43:26.045Z,22.23
2019-03-22T14:46:10.773Z,26.40
2019-03-22T14:48:45.075Z,23.00
2019-03-22T14:51:36.578Z,26.23
2019-03-22T14:54:27.925Z,19.50
2019-03-22T14:57:06.979Z,22.10
2019-03-22T14:59:59.413Z,21.00
2019-03-22T15:02:54.083Z,21.50
2019-03-22T15:05:28.346Z,20.30
2019-03-22T15:08:04.928Z,21.93
2019-03-22T15:10:39.189Z,28.33
2019-03-22T15:13:12.014Z,23.47
2019-03-22T15:15:57.674Z,32.17
2019-03-22T15:18:51.821Z,28.87
2019-03-22T15:21:46.545Z,21.33
2019-03-22T15:24:49.233Z,21.93
2019-03-22T15:27:50.418Z,20.47
2019-03-22T15:30:40.873Z,16.23
2019-03-22T15:33:39.602Z,17.30
2019-03-22T15:36:47.791Z,19.40
2019-03-22T15:39:48.249Z,16.03
2019-03-22T15:42:22.399Z,16.93
2019-03-22T15:48:03.735Z,15.00
2019-03-22T15:50:56.291Z,16.00
2019-03-22T15:53:28.731Z,16.93
2019-03-22T15:56:00.732Z,15.33
2019-03-22T15:58:38.079Z,14.57
2019-03-22T16:01:12.494Z,17.07
2019-03-22T16:03:47.485Z,22.27
2019-03-22T16:06:20.501Z,14.93
2019-03-22T16:08:51.861Z,18.30
2019-03-22T16:11:34.696Z,20.43
2019-03-22T16:14:07.655Z,20.30
2019-03-22T16:16:56.965Z,22.67
2019-03-22T16:19:47.354Z,19.60
2019-03-22T16:22:36.946Z,19.90
2019-03-22T16:25:16.093Z,23.13
2019-03-22T16:27:49.800Z,17.87
2019-03-22T16:30:24.521Z,19.30
2019-03-22T16:32:56.509Z,21.93
2019-03-22T16:35:27.554Z,18.53
2019-03-22T16:38:00.604Z,21.83
2019-03-22T16:40:31.914Z,22.70
2019-03-22T16:43:09.850Z,17.57
2019-03-22T16:45:44.334Z,18.50
2019-03-22T16:48:34.579Z,19.73
2019-03-22T16:51:07.931Z,20.70
2019-03-22T16:53:39.964Z,20.70
2019-03-22T16:56:29.898Z,17.20
2019-03-22T16:59:05.638Z,17.73
2019-03-22T17:01:36.691Z,17.90
2019-03-22T17:04:10.573Z,20.03
2019-03-22T17:06:43.932Z,16.53
2019-03-22T17:09:33.899Z,15.20
2019-03-22T17:12:07.536Z,19.90
2019-03-22T17:14:39.105Z,15.47
2019-03-22T17:17:24.837Z,19.73
2019-03-22T17:19:58.220Z,15.30
2019-03-22T17:22:33.350Z,18.90
2019-03-22T17:25:05.086Z,16.43
2019-03-22T17:27:37.469Z,20.73
2019-03-22T17:30:14.812Z,19.70
2019-03-22T17:32:47.539Z,15.97
2019-03-22T17:35:38.567Z,21.20
2019-03-22T17:38:10.303Z,21.90
2019-03-22T17:40:44.306Z,19.17
2019-03-22T17:43:16.219Z,16.90
2019-03-22T17:45:51.030Z,18.70
2019-03-22T17:48:22.030Z,16.10
2019-03-22T17:50:56.164Z,17.93
2019-03-22T17:53:30.221Z,22.60
2019-03-22T17:56:05.935Z,18.33
2019-03-22T17:58:38.877Z,15.83
2019-03-22T18:01:28.646Z,16.37
2019-03-22T18:04:24.188Z,18.93
2019-03-22T18:07:04.998Z,18.70
2019-03-22T18:09:37.716Z,23.40
2019-03-22T18:12:11.912Z,19.40
2019-03-22T18:14:43.667Z,20.53
2019-03-22T18:17:17.093Z,22.43
2019-03-22T18:19:50.065Z,19.77
2019-03-22T18:22:25.089Z,41.50
2019-03-22T18:24:58.150Z,41.70
2019-03-22T18:27:30.505Z,44.30
2019-03-22T18:30:05.284Z,41.43
2019-03-22T18:32:55.155Z,36.43
2019-03-22T18:35:45.277Z,50.40
2019-03-22T18:38:18.557Z,121.13
2019-03-22T18:40:52.309Z,76.23
2019-03-22T18:43:25.502Z,95.30
2019-03-22T18:45:58.609Z,119.20
2019-03-22T18:48:33.497Z,83.53
2019-03-22T18:51:04.631Z,74.90
2019-03-22T18:53:38.309Z,65.67
2019-03-22T18:56:28.385Z,61.47
2019-03-22T18:59:00.435Z,47.70
2019-03-22T19:01:33.542Z,42.00
2019-03-22T19:04:04.476Z,43.67
2019-03-22T19:06:35.561Z,35.60
2019-03-22T19:09:09.207Z,40.27
2019-03-22T19:11:40.382Z,35.13
2019-03-22T19:14:13.393Z,36.93
2019-03-22T19:16:47.577Z,29.17
2019-03-22T19:19:21.735Z,37.43
2019-03-22T19:22:11.301Z,34.03
2019-03-22T19:24:43.522Z,31.30
2019-03-22T19:27:19.265Z,34.93
2019-03-22T19:29:55.016Z,43.20
2019-03-22T19:32:34.007Z,54.93
2019-03-22T19:35:07.967Z,50.03
2019-03-22T19:37:40.739Z,42.70
2019-03-22T19:40:15.234Z,59.30
2019-03-22T19:42:46.552Z,56.13
2019-03-22T19:45:20.606Z,52.90
2019-03-22T19:47:54.655Z,58.60
2019-03-22T19:50:28.736Z,46.97
2019-03-22T19:53:08.570Z,48.83
2019-03-22T19:55:41.303Z,42.63
2019-03-22T19:58:13.985Z,40.20
2019-03-22T20:00:47.703Z,33.57
2019-03-22T20:03:21.799Z,29.60
2019-03-22T20:05:55.779Z,36.73
2019-03-22T20:08:29.832Z,38.77
2019-03-22T20:11:03.430Z,28.70
2019-03-22T20:13:53.236Z,29.47
2019-03-22T20:16:26.997Z,27.27
2019-03-22T20:18:58.699Z,29.63
2019-03-22T20:21:30.205Z,25.13
2019-03-22T20:24:05.254Z,25.23
2019-03-22T20:26:40.139Z,22.87
2019-03-22T20:29:13.938Z,27.80
2019-03-22T20:31:46.913Z,27.60
2019-03-22T20:34:19.855Z,22.50
2019-03-22T20:36:53.126Z,25.80
2019-03-22T20:39:33.974Z,29.43
2019-03-22T20:42:10.083Z,31.50
2019-03-22T20:45:04.577Z,32.37
2019-03-22T20:47:38.889Z,25.83
2019-03-22T20:50:15.487Z,25.97
2019-03-22T20:52:49.771Z,24.10
2019-03-22T20:55:23.856Z,24.00
2019-03-22T20:57:56.912Z,24.93
2019-03-22T21:00:46.597Z,28.73
2019-03-22T21:03:21.554Z,30.43
2019-03-22T21:05:54.197Z,33.80
2019-03-22T21:08:26.931Z,29.83
2019-03-22T21:11:16.451Z,24.37
2019-03-22T21:13:52.188Z,28.90
2019-03-22T21:16:26.281Z,28.87
2019-03-22T21:18:57.698Z,25.60
2019-03-22T21:21:36.185Z,25.83
2019-03-22T21:24:05.890Z,27.63
2019-03-22T21:26:39.388Z,25.87
2019-03-22T21:29:28.875Z,25.77
2019-03-22T21:32:02.381Z,27.23
2019-03-22T21:34:36.384Z,23.93
2019-03-22T21:37:10.224Z,28.97
2019-03-22T21:39:47.217Z,28.60
2019-03-22T21:42:19.346Z,24.67
2019-03-22T21:44:53.871Z,23.30
2019-03-22T21:47:25.490Z,27.00
2019-03-22T21:50:03.211Z,28.47
2019-03-22T21:52:35.589Z,24.33
2019-03-22T21:55:09.064Z,25.13
2019-03-22T21:57:40.227Z,25.87
2019-03-22T22:00:18.242Z,25.77
2019-03-22T22:03:09.965Z,25.43
2019-03-22T22:05:47.878Z,29.10
2019-03-22T22:08:17.171Z,28.50
2019-03-22T22:10:59.320Z,26.80
2019-03-22T22:13:24.168Z,26.83
2019-03-22T22:15:59.314Z,26.87
2019-03-22T22:18:32.120Z,29.47
2019-03-22T22:21:04.418Z,28.07
2019-03-22T22:23:38.409Z,26.17
2019-03-22T22:26:11.258Z,44.80
2019-03-22T22:28:42.527Z,96.13
2019-03-22T22:31:16.648Z,51.90
2019-03-22T22:33:49.096Z,53.03
2019-03-22T22:36:21.979Z,32.57
2019-03-22T22:38:54.711Z,29.27
2019-03-22T22:41:40.348Z,30.83
2019-03-22T22:44:11.610Z,27.23
2019-03-22T22:46:44.331Z,27.33
2019-03-22T22:49:17.579Z,30.90
2019-03-22T22:51:50.827Z,23.63
2019-03-22T22:54:25.209Z,30.00
2019-03-22T22:56:57.565Z,32.83
2019-03-22T22:59:47.390Z,31.60
2019-03-22T23:02:19.800Z,29.30
2019-03-22T23:04:52.971Z,33.43
2019-03-22T23:07:26.849Z,25.77
2019-03-22T23:09:59.451Z,27.13
2019-03-22T23:12:32.823Z,29.80
2019-03-22T23:15:04.488Z,32.63
2019-03-22T23:17:38.387Z,32.20
2019-03-22T23:20:10.725Z,32.67
2019-03-22T23:22:44.584Z,40.20
2019-03-22T23:25:17.490Z,36.70
2019-03-22T23:27:50.916Z,33.87
2019-03-22T23:30:37.746Z,41.90
2019-03-22T23:33:11.879Z,41.50
2019-03-22T23:35:43.762Z,41.90
2019-03-22T23:38:17.701Z,36.13
2019-03-22T23:40:57.586Z,35.30
2019-03-22T23:43:29.571Z,36.80
2019-03-22T23:46:01.742Z,42.20
2019-03-22T23:48:50.992Z,41.97
2019-03-22T23:51:22.669Z,35.77
2019-03-22T23:53:56.964Z,45.13
2019-03-22T23:56:29.687Z,46.73
2019-03-22T23:59:02.612Z,44.53
